Time;durP1;ratioP1;P1;durP2;ratioP2;P2;SDS_P1;SDS_P2;PMS_P1;PMS_P2;Temp;Humidity;BMP_temperature;BMP_pressure;BME280_temperature;BME280_humidity;BME280_pressure;Samples;Min_cycle;Max_cycle;Signal;HPM_P1;HPM_P2
2023/11/25 00:02:23;;;;;;;18.93;3.23;;;6.00;99.90;;;;;;5035473;28;38373;-79
2023/11/25 00:04:49;;;;;;;22.53;3.60;;;5.90;99.90;;;;;;5042748;28;37957;-79
2023/11/25 00:07:16;;;;;;;34.13;4.03;;;5.90;99.90;;;;;;5046059;28;38227;-79
2023/11/25 00:09:42;;;;;;;24.83;4.07;;;5.90;99.90;;;;;;5052572;28;36634;-79
2023/11/25 00:12:08;;;;;;;28.37;3.70;;;5.90;99.90;;;;;;5046022;28;38279;-79
2023/11/25 00:14:34;;;;;;;23.00;3.33;;;5.90;99.90;;;;;;5037569;28;39403;-78
2023/11/25 00:17:01;;;;;;;21.87;3.33;;;6.00;99.90;;;;;;5045032;28;38046;-79
2023/11/25 00:19:27;;;;;;;27.03;3.10;;;6.00;99.90;;;;;;5043432;28;49046;-79
2023/11/25 00:21:53;;;;;;;17.63;2.97;;;5.90;99.90;;;;;;5041060;28;39158;-79
2023/11/25 00:24:19;;;;;;;18.27;2.80;;;5.80;99.90;;;;;;5043897;28;37383;-79
2023/11/25 00:26:45;;;;;;;18.77;2.53;;;5.80;99.90;;;;;;5045614;28;37790;-79
2023/11/25 00:29:11;;;;;;;18.20;2.50;;;5.80;99.90;;;;;;5047203;28;36348;-78
2023/11/25 00:31:37;;;;;;;13.27;2.63;;;5.80;99.90;;;;;;5037569;28;39836;-79
2023/11/25 00:34:06;;;;;;;16.43;2.53;;;5.70;99.90;;;;;;5043949;28;39667;-80
2023/11/25 00:36:32;;;;;;;12.70;2.13;;;5.70;99.90;;;;;;5049497;28;37228;-79
2023/11/25 00:38:59;;;;;;;19.93;2.60;;;5.80;99.90;;;;;;5054715;28;37075;-80
2023/11/25 00:41:25;;;;;;;21.30;2.87;;;5.70;99.90;;;;;;5048392;28;38757;-79
2023/11/25 00:43:51;;;;;;;16.93;3.13;;;5.60;99.90;;;;;;5053692;28;37870;-79
2023/11/25 00:46:17;;;;;;;17.33;2.43;;;5.70;99.90;;;;;;5049471;28;39242;-79
2023/11/25 00:48:46;;;;;;;22.53;3.20;;;5.60;99.90;;;;;;5044679;28;35708;-79
2023/11/25 00:51:13;;;;;;;19.70;2.77;;;5.60;99.90;;;;;;5041948;28;38060;-79
2023/11/25 00:53:39;;;;;;;19.77;2.70;;;5.50;99.90;;;;;;5045616;28;37087;-79
2023/11/25 00:56:06;;;;;;;29.90;3.23;;;5.50;99.90;;;;;;5050625;28;38774;-81
2023/11/25 00:58:33;;;;;;;20.23;4.10;;;5.40;99.90;;;;;;5045551;28;36929;-80
2023/11/25 01:00:59;;;;;;;17.30;3.37;;;5.30;99.90;;;;;;5062387;28;38012;-79
2023/11/25 01:03:28;;;;;;;22.83;3.50;;;5.20;99.90;;;;;;5036722;28;38561;-79
2023/11/25 01:05:54;;;;;;;17.17;3.17;;;5.20;99.90;;;;;;5045719;28;38714;-79
2023/11/25 01:08:21;;;;;;;24.57;3.80;;;5.20;99.90;;;;;;5049332;28;37275;-80
2023/11/25 01:10:47;;;;;;;34.33;4.97;;;5.20;99.90;;;;;;5049472;28;37553;-81
2023/11/25 01:13:13;;;;;;;21.10;3.27;;;5.30;99.90;;;;;;5054290;28;36825;-80
2023/11/25 01:15:39;;;;;;;25.37;2.90;;;5.60;99.90;;;;;;5061061;28;37554;-81
2023/11/25 01:18:06;;;;;;;25.47;3.60;;;6.00;99.90;;;;;;5052693;28;37912;-80
2023/11/25 01:20:32;;;;;;;26.40;3.80;;;6.10;99.90;;;;;;5044360;28;40030;-80
2023/11/25 01:22:58;;;;;;;27.77;3.33;;;6.10;99.90;;;;;;5050371;28;40576;-79
2023/11/25 01:25:27;;;;;;;20.13;3.33;;;6.10;99.90;;;;;;5048090;28;36836;-80
2023/11/25 01:27:54;;;;;;;19.57;3.43;;;6.30;99.90;;;;;;5046442;28;39684;-80
2023/11/25 01:30:20;;;;;;;26.33;3.43;;;6.50;99.90;;;;;;5045340;28;41960;-80
2023/11/25 01:32:46;;;;;;;19.77;3.47;;;6.50;99.90;;;;;;5042206;28;37270;-80
2023/11/25 01:35:12;;;;;;;21.60;3.17;;;6.50;99.90;;;;;;5038629;28;38739;-79
2023/11/25 01:37:39;;;;;;;28.47;4.17;;;6.50;99.90;;;;;;5046327;28;37298;-80
2023/11/25 01:40:11;;;;;;;27.33;4.77;;;6.40;99.90;;;;;;5042291;28;40155;-79
2023/11/25 01:42:38;;;;;;;;;;;6.30;99.90;;;;;;5033006;28;47610;-80
2023/11/25 01:45:05;;;;;;;22.27;3.00;;;6.30;99.90;;;;;;5042273;28;38084;-79
2023/11/25 01:47:31;;;;;;;23.67;3.80;;;6.30;99.90;;;;;;5042663;28;35365;-80
2023/11/25 01:50:02;;;;;;;31.60;4.13;;;6.30;99.90;;;;;;5039589;28;37915;-80
2023/11/25 01:52:30;;;;;;;23.40;4.10;;;6.30;99.90;;;;;;5035229;28;37877;-79
2023/11/25 01:54:56;;;;;;;24.23;3.97;;;6.20;99.90;;;;;;5044648;28;38342;-79
2023/11/25 01:57:23;;;;;;;29.07;3.70;;;6.20;99.90;;;;;;5045925;28;36316;-80
2023/11/25 01:59:50;;;;;;;26.83;3.90;;;6.20;99.90;;;;;;5035435;28;37669;-80
2023/11/25 02:04:52;;;;;;;31.83;3.33;;;6.40;99.90;;;;;;5063588;28;20052;-79
2023/11/25 02:07:21;;;;;;;21.37;3.60;;;6.40;99.90;;;;;;5065970;28;37131;-77
2023/11/25 02:09:48;;;;;;;27.37;3.87;;;6.40;99.90;;;;;;5061773;28;38400;-77
2023/11/25 02:12:15;;;;;;;31.27;4.10;;;6.40;99.90;;;;;;5067773;28;38692;-78
2023/11/25 02:14:47;;;;;;;31.87;4.43;;;6.40;99.90;;;;;;5072942;28;37973;-78
2023/11/25 02:17:14;;;;;;;19.45;3.33;;;6.40;99.90;;;;;;5063670;28;36029;-78
2023/11/25 02:19:44;;;;;;;22.10;2.93;;;6.30;99.90;;;;;;5067408;28;37848;-78
2023/11/25 02:22:10;;;;;;;18.00;2.73;;;6.40;99.90;;;;;;5058814;28;37154;-77
2023/11/25 02:24:37;;;;;;;19.57;2.97;;;6.40;99.90;;;;;;5072697;28;37814;-77
2023/11/25 02:27:05;;;;;;;17.40;3.87;;;6.40;99.90;;;;;;5072525;28;37340;-78
2023/11/25 02:29:35;;;;;;;27.57;3.13;;;6.50;99.90;;;;;;5068015;28;37860;-78
2023/11/25 02:32:06;;;;;;;18.60;4.13;;;6.60;98.00;;;;;;5066774;28;38375;-77
2023/11/25 02:34:35;;;;;;;33.03;4.53;;;6.60;98.40;;;;;;5070702;28;48417;-79
2023/11/25 02:37:02;;;;;;;18.90;3.40;;;6.60;96.30;;;;;;5072550;28;38026;-78
2023/11/25 02:39:28;;;;;;;22.33;3.50;;;6.50;97.30;;;;;;5071799;28;38705;-78
2023/11/25 02:41:54;;;;;;;24.23;3.57;;;6.50;99.10;;;;;;5069418;28;38799;-77
2023/11/25 02:44:21;;;;;;;20.33;2.97;;;6.50;99.60;;;;;;5064864;28;39176;-77
2023/11/25 02:46:48;;;;;;;21.93;3.33;;;6.50;99.90;;;;;;5067969;28;37458;-79
2023/11/25 02:49:15;;;;;;;25.20;3.40;;;6.40;99.90;;;;;;5071637;28;39988;-77
2023/11/25 02:51:49;;;;;;;20.30;3.27;;;6.40;99.90;;;;;;5072402;28;36868;-79
2023/11/25 02:54:17;;;;;;;21.20;3.20;;;6.40;99.90;;;;;;5069567;28;38643;-77
2023/11/25 02:56:43;;;;;;;26.70;3.53;;;6.30;99.90;;;;;;5072147;28;36454;-77
2023/11/25 02:59:10;;;;;;;19.17;2.87;;;6.40;99.90;;;;;;5069089;28;41366;-76
2023/11/25 03:01:39;;;;;;;18.43;3.80;;;6.40;99.90;;;;;;5069451;28;39205;-77
2023/11/25 03:04:11;;;;;;;23.63;3.70;;;6.40;99.90;;;;;;5070103;28;37909;-78
2023/11/25 03:06:37;;;;;;;20.52;3.15;;;6.30;99.90;;;;;;5064850;28;38091;-77
2023/11/25 03:09:06;;;;;;;21.77;3.10;;;6.40;99.90;;;;;;5050692;28;39489;-78
2023/11/25 03:11:33;;;;;;;19.80;3.60;;;6.40;99.90;;;;;;5067826;28;39221;-79
2023/11/25 03:13:59;;;;;;;26.10;3.03;;;6.50;99.90;;;;;;5072108;28;37885;-79
2023/11/25 03:16:34;;;;;;;23.37;3.50;;;6.60;97.30;;;;;;5069029;28;37358;-77
2023/11/25 03:19:01;;;;;;;20.20;2.80;;;6.80;75.80;;;;;;5046350;28;38695;-79
2023/11/25 03:21:28;;;;;;;24.90;3.03;;;7.00;67.10;;;;;;5066877;28;47192;-77
2023/11/25 03:23:55;;;;;;;17.37;3.00;;;7.00;69.80;;;;;;5054132;28;36953;-78
2023/11/25 03:26:22;;;;;;;18.63;2.83;;;7.10;65.10;;;;;;5063224;28;36118;-77
2023/11/25 03:28:51;;;;;;;17.30;2.80;;;7.20;60.20;;;;;;5073304;28;38073;-78
2023/11/25 03:31:22;;;;;;;18.77;3.40;;;7.20;47.90;;;;;;5069625;28;38423;-78
2023/11/25 03:33:50;;;;;;;22.77;3.43;;;7.20;55.20;;;;;;5069207;28;38060;-79
2023/11/25 03:36:16;;;;;;;21.53;5.20;;;7.20;53.50;;;;;;5069799;28;37773;-80
2023/11/25 03:38:43;;;;;;;21.83;3.03;;;7.10;58.40;;;;;;5073659;28;38796;-80
2023/11/25 03:41:12;;;;;;;16.63;3.40;;;7.00;64.40;;;;;;5073247;28;39857;-80
2023/11/25 03:43:38;;;;;;;21.03;2.70;;;7.00;67.80;;;;;;5073405;28;38662;-79
2023/11/25 03:46:06;;;;;;;25.80;3.20;;;6.90;70.60;;;;;;5054260;28;40293;-78
2023/11/25 03:48:34;;;;;;;15.87;2.33;;;6.90;66.30;;;;;;5058970;28;37724;-79
2023/11/25 03:51:04;;;;;;;17.70;2.53;;;6.90;71.70;;;;;;5074955;28;39208;-79
2023/11/25 03:53:33;;;;;;;21.80;2.60;;;6.90;62.60;;;;;;5061334;28;47845;-78
2023/11/25 03:56:02;;;;;;;9.67;1.63;;;7.00;54.80;;;;;;5065703;28;36776;-77
2023/11/25 03:58:28;;;;;;;14.10;1.77;;;7.10;57.30;;;;;;5072125;28;48444;-78
2023/11/25 04:00:55;;;;;;;8.73;1.50;;;7.10;66.70;;;;;;5074084;28;38427;-80
2023/11/25 04:03:25;;;;;;;5.57;1.53;;;7.10;69.00;;;;;;5068478;28;39290;-77
2023/11/25 04:05:52;;;;;;;11.13;1.60;;;7.20;65.70;;;;;;5066693;28;38150;-78
2023/11/25 04:08:18;;;;;;;14.13;1.60;;;7.20;80.30;;;;;;5073955;28;38120;-77
2023/11/25 04:10:44;;;;;;;7.30;1.30;;;7.40;81.70;;;;;;5065678;28;38256;-80
2023/11/25 04:13:10;;;;;;;8.80;1.50;;;7.40;87.20;;;;;;5042855;28;37070;-78
2023/11/25 04:15:36;;;;;;;11.67;1.40;;;7.50;95.30;;;;;;5060956;28;37262;-80
2023/11/25 04:18:03;;;;;;;6.13;1.10;;;7.60;95.40;;;;;;5068190;28;37615;-78
2023/11/25 04:20:29;;;;;;;17.43;1.97;;;7.50;97.90;;;;;;5081532;28;38452;-78
2023/11/25 04:22:56;;;;;;;14.20;1.37;;;7.50;99.90;;;;;;5071580;28;37551;-78
2023/11/25 04:25:25;;;;;;;12.47;1.67;;;7.40;99.90;;;;;;5062840;28;38594;-79
2023/11/25 04:27:51;;;;;;;10.30;1.13;;;7.30;99.90;;;;;;5067226;28;39328;-80
2023/11/25 04:30:17;;;;;;;14.47;1.13;;;7.30;99.90;;;;;;5069183;28;39050;-79
2023/11/25 04:32:46;;;;;;;5.07;0.97;;;7.20;99.90;;;;;;5064457;28;38233;-78
2023/11/25 04:35:16;;;;;;;4.53;1.00;;;7.20;94.20;;;;;;5069589;28;37555;-77
2023/11/25 04:37:52;;;;;;;6.10;1.47;;;7.30;94.60;;;;;;5070984;28;39186;-78
2023/11/25 04:40:19;;;;;;;4.70;0.87;;;7.40;91.80;;;;;;5070565;28;38827;-78
2023/11/25 04:42:48;;;;;;;6.67;0.70;;;7.30;95.70;;;;;;5068602;28;38005;-79
2023/11/25 04:45:19;;;;;;;10.93;1.23;;;7.40;91.40;;;;;;5067364;28;38260;-78
2023/11/25 04:47:49;;;;;;;5.87;1.00;;;7.40;94.70;;;;;;5068960;28;38030;-78
2023/11/25 04:50:26;;;;;;;7.30;0.77;;;7.40;97.20;;;;;;5065616;28;38888;-78
2023/11/25 04:52:52;;;;;;;11.13;1.30;;;7.30;99.90;;;;;;5059775;28;39649;-78
2023/11/25 04:55:25;;;;;;;6.13;0.93;;;7.10;99.90;;;;;;5067623;28;37245;-80
2023/11/25 04:57:51;;;;;;;10.37;1.23;;;7.00;99.90;;;;;;5066473;28;39547;-80
2023/11/25 05:00:18;;;;;;;9.97;1.10;;;6.90;99.90;;;;;;5051281;28;37228;-79
2023/11/25 05:02:44;;;;;;;9.97;1.57;;;6.90;99.90;;;;;;5052683;28;37439;-80
2023/11/25 05:05:12;;;;;;;11.47;1.60;;;6.90;99.90;;;;;;5061689;28;35967;-80
2023/11/25 05:07:39;;;;;;;12.53;1.50;;;6.80;99.90;;;;;;5065654;28;37567;-77
2023/11/25 05:10:09;;;;;;;11.63;1.17;;;6.80;99.90;;;;;;5068079;28;37616;-79
2023/11/25 05:12:36;;;;;;;10.20;1.77;;;6.70;99.90;;;;;;5059536;28;37457;-79
2023/11/25 05:15:03;;;;;;;10.17;1.50;;;6.60;99.90;;;;;;5047425;28;37000;-79
2023/11/25 05:17:32;;;;;;;7.43;1.40;;;6.50;99.90;;;;;;5071404;28;48840;-79
2023/11/25 05:19:59;;;;;;;15.60;1.87;;;6.30;99.90;;;;;;5070425;28;38456;-79
2023/11/25 05:22:28;;;;;;;22.87;1.90;;;6.30;99.90;;;;;;5070227;28;38492;-79
2023/11/25 05:24:57;;;;;;;16.63;1.97;;;6.20;99.90;;;;;;5070193;28;37668;-79
2023/11/25 05:27:23;;;;;;;10.00;1.30;;;6.20;99.90;;;;;;5060148;28;37806;-80
2023/11/25 05:29:49;;;;;;;11.93;1.93;;;6.30;99.90;;;;;;5071270;28;38198;-79
2023/11/25 05:32:15;;;;;;;13.27;2.70;;;6.40;99.90;;;;;;5067751;28;38232;-78
2023/11/25 05:34:42;;;;;;;17.87;3.47;;;6.50;99.90;;;;;;5063247;28;37798;-78
2023/11/25 05:37:08;;;;;;;17.93;2.90;;;6.60;99.90;;;;;;5071784;28;38491;-78
2023/11/25 05:39:35;;;;;;;11.30;2.10;;;6.60;99.90;;;;;;5071080;28;38803;-78
2023/11/25 05:42:05;;;;;;;17.67;2.30;;;6.70;99.90;;;;;;5073578;28;38147;-78
2023/11/25 05:44:31;;;;;;;13.60;2.10;;;6.80;99.90;;;;;;5071885;28;36340;-79
2023/11/25 05:46:58;;;;;;;13.97;1.77;;;6.80;99.90;;;;;;5069277;28;38110;-78
2023/11/25 05:49:26;;;;;;;12.10;2.00;;;6.80;99.90;;;;;;5062714;28;37894;-77
2023/11/25 05:51:55;;;;;;;11.23;1.63;;;7.00;99.90;;;;;;5066967;28;37145;-77
2023/11/25 05:54:22;;;;;;;13.47;1.83;;;7.10;99.90;;;;;;5065348;28;39475;-77
2023/11/25 05:56:48;;;;;;;8.97;1.60;;;7.20;99.90;;;;;;5071275;28;37709;-77
2023/11/25 05:59:18;;;;;;;9.13;1.57;;;7.20;99.90;;;;;;5074202;28;39939;-79
2023/11/25 06:01:44;;;;;;;9.33;1.40;;;7.20;99.90;;;;;;5069352;28;37385;-78
2023/11/25 06:04:10;;;;;;;5.67;1.13;;;7.10;99.90;;;;;;5067982;28;38003;-77
2023/11/25 06:06:38;;;;;;;5.20;1.53;;;7.00;99.90;;;;;;5070178;28;39968;-78
2023/11/25 06:09:06;;;;;;;4.73;1.07;;;7.10;99.90;;;;;;5068952;28;39677;-79
2023/11/25 06:11:35;;;;;;;6.17;1.57;;;7.30;99.90;;;;;;5067815;28;37457;-79
2023/11/25 06:14:01;;;;;;;11.60;1.10;;;7.20;99.90;;;;;;5069620;28;37870;-77
2023/11/25 06:16:29;;;;;;;8.63;0.93;;;6.90;99.90;;;;;;5066713;28;46350;-78
2023/11/25 06:18:55;;;;;;;7.83;1.10;;;6.80;99.90;;;;;;5065501;28;38116;-78
2023/11/25 06:21:21;;;;;;;8.33;0.87;;;6.60;99.90;;;;;;5066756;28;36952;-78
2023/11/25 06:23:48;;;;;;;5.67;0.67;;;6.50;99.90;;;;;;5064966;28;35990;-77
2023/11/25 06:26:19;;;;;;;8.30;1.00;;;6.50;99.90;;;;;;5063808;28;37887;-76
2023/11/25 06:28:47;;;;;;;6.93;0.70;;;6.40;99.90;;;;;;5065807;28;38276;-77
2023/11/25 06:31:15;;;;;;;9.13;1.03;;;6.30;99.90;;;;;;5067869;28;37724;-77
2023/11/25 06:33:41;;;;;;;10.47;1.67;;;6.30;99.90;;;;;;5072266;28;37634;-78
2023/11/25 06:36:08;;;;;;;11.43;1.53;;;6.30;99.90;;;;;;5067147;28;39121;-77
2023/11/25 06:38:36;;;;;;;12.23;1.33;;;6.40;99.90;;;;;;5065955;28;38368;-77
2023/11/25 06:41:02;;;;;;;10.60;1.77;;;6.50;99.90;;;;;;5067526;28;37516;-78
2023/11/25 06:43:31;;;;;;;13.83;1.83;;;6.50;99.90;;;;;;5068011;28;48691;-79
2023/11/25 06:45:59;;;;;;;18.20;1.73;;;6.50;99.90;;;;;;5065906;28;37700;-77
2023/11/25 06:48:34;;;;;;;12.17;1.90;;;6.60;99.90;;;;;;5064396;28;38953;-79
2023/11/25 06:51:00;;;;;;;15.20;1.70;;;6.80;99.90;;;;;;5063635;28;38917;-78
2023/11/25 06:53:30;;;;;;;12.50;1.80;;;6.90;99.90;;;;;;5070941;28;38160;-78
2023/11/25 06:56:00;;;;;;;11.90;2.03;;;6.90;99.90;;;;;;5069189;28;37325;-79
2023/11/25 06:58:26;;;;;;;11.77;1.60;;;6.90;99.90;;;;;;5073764;28;37956;-79
2023/11/25 07:00:53;;;;;;;10.83;1.20;;;6.90;99.90;;;;;;5072378;28;38366;-78
2023/11/25 07:03:19;;;;;;;11.13;1.37;;;6.80;99.90;;;;;;5072309;28;36093;-78
2023/11/25 07:05:45;;;;;;;11.17;1.50;;;6.80;99.90;;;;;;5063204;28;39566;-78
2023/11/25 07:08:12;;;;;;;13.17;1.70;;;6.90;99.90;;;;;;5071866;28;38334;-78
2023/11/25 07:10:40;;;;;;;8.23;1.30;;;6.90;99.90;;;;;;5063700;28;38091;-78
2023/11/25 07:13:06;;;;;;;10.23;1.27;;;6.90;99.90;;;;;;5065330;28;38621;-78
2023/11/25 07:15:32;;;;;;;6.70;1.17;;;7.00;99.90;;;;;;5067661;28;37582;-79
2023/11/25 07:17:59;;;;;;;7.90;1.27;;;7.00;99.90;;;;;;5070499;28;38163;-78
2023/11/25 07:20:26;;;;;;;12.37;1.83;;;7.00;99.90;;;;;;5066695;28;40956;-79
2023/11/25 07:22:52;;;;;;;10.60;1.97;;;7.10;99.90;;;;;;5070970;28;37007;-79
2023/11/25 07:25:21;;;;;;;12.27;2.60;;;7.10;99.90;;;;;;5069182;28;40873;-79
2023/11/25 07:27:47;;;;;;;12.83;1.40;;;7.20;99.90;;;;;;5070454;28;38266;-79
2023/11/25 07:30:15;;;;;;;14.77;2.23;;;7.10;99.90;;;;;;5062093;28;38749;-80
2023/11/25 07:32:43;;;;;;;14.03;2.13;;;7.00;99.90;;;;;;5067332;28;37120;-79
2023/11/25 07:35:12;;;;;;;12.63;2.23;;;7.10;99.90;;;;;;5061876;28;39450;-80
2023/11/25 07:37:39;;;;;;;21.83;2.63;;;7.20;99.90;;;;;;5058736;28;42904;-78
2023/11/25 07:40:15;;;;;;;12.67;1.70;;;7.20;99.90;;;;;;5058472;28;39284;-78
2023/11/25 07:42:44;;;;;;;14.37;2.50;;;7.20;99.90;;;;;;5058412;28;36276;-78
2023/11/25 07:45:10;;;;;;;19.27;2.60;;;7.20;99.90;;;;;;5055512;28;41157;-81
2023/11/25 07:47:37;;;;;;;15.53;2.20;;;7.20;99.90;;;;;;5070350;28;39839;-80
2023/11/25 07:50:03;;;;;;;21.40;3.37;;;7.00;99.90;;;;;;5066413;28;37790;-79
2023/11/25 07:52:30;;;;;;;16.50;2.33;;;6.90;99.90;;;;;;5055996;28;47449;-77
2023/11/25 07:54:56;;;;;;;21.57;3.60;;;6.90;99.90;;;;;;5058129;28;39902;-78
2023/11/25 07:57:22;;;;;;;17.27;2.33;;;6.90;99.90;;;;;;5056737;28;37769;-78
2023/11/25 07:59:49;;;;;;;16.43;2.27;;;6.90;99.90;;;;;;5052814;28;37807;-77
2023/11/25 08:02:18;;;;;;;13.27;2.30;;;6.90;99.90;;;;;;5055743;28;36230;-76
2023/11/25 08:04:46;;;;;;;17.13;2.60;;;6.90;99.90;;;;;;5052159;28;39584;-76
2023/11/25 08:07:14;;;;;;;12.47;3.23;;;6.90;99.90;;;;;;5057659;28;39013;-79
2023/11/25 08:09:41;;;;;;;15.77;2.03;;;6.90;99.90;;;;;;5047779;28;39486;-79
2023/11/25 08:12:08;;;;;;;11.13;1.43;;;7.00;99.90;;;;;;5060679;28;36079;-79
2023/11/25 08:14:35;;;;;;;16.70;2.77;;;7.20;99.90;;;;;;5057894;28;38797;-78
2023/11/25 08:17:02;;;;;;;12.67;2.27;;;7.40;99.90;;;;;;5058345;28;38553;-78
2023/11/25 08:19:28;;;;;;;11.93;2.00;;;7.40;99.90;;;;;;5057441;28;47847;-80
2023/11/25 08:21:54;;;;;;;17.20;2.20;;;7.30;99.90;;;;;;5061075;28;36094;-78
2023/11/25 08:24:20;;;;;;;9.97;1.67;;;7.40;99.90;;;;;;5061916;28;39101;-79
2023/11/25 08:26:47;;;;;;;10.67;1.37;;;7.50;99.90;;;;;;5061952;28;39388;-80
2023/11/25 08:29:17;;;;;;;10.90;1.57;;;7.50;99.90;;;;;;5061759;28;37914;-78
2023/11/25 08:31:46;;;;;;;10.93;1.70;;;7.40;99.90;;;;;;5063153;28;35949;-80
2023/11/25 08:34:13;;;;;;;9.87;2.63;;;7.40;99.90;;;;;;5055382;28;38801;-79
2023/11/25 08:36:52;;;;;;;14.83;1.70;;;7.60;99.90;;;;;;5059767;28;40450;-81
2023/11/25 08:39:32;;;;;;;11.90;1.53;;;7.80;99.90;;;;;;5061455;28;38022;-80
2023/11/25 08:42:02;;;;;;;11.33;1.73;;;7.70;99.90;;;;;;5067236;28;36557;-80
2023/11/25 08:44:28;;;;;;;12.77;1.80;;;7.60;99.90;;;;;;5069306;28;50029;-80
2023/11/25 08:46:57;;;;;;;12.50;1.57;;;7.70;99.90;;;;;;5071720;28;37393;-81
2023/11/25 08:49:24;;;;;;;12.73;2.30;;;7.70;99.90;;;;;;5070097;28;36893;-81
2023/11/25 08:51:52;;;;;;;8.87;1.10;;;7.90;99.90;;;;;;5057631;28;37452;-81
2023/11/25 08:54:18;;;;;;;9.03;1.80;;;8.00;99.90;;;;;;5065730;28;39252;-82
2023/11/25 08:56:45;;;;;;;4.97;1.07;;;8.10;99.90;;;;;;5065688;28;38150;-81
2023/11/25 08:59:18;;;;;;;16.73;1.90;;;8.10;99.90;;;;;;5065150;28;37037;-82
2023/11/25 09:01:47;;;;;;;9.73;1.63;;;8.10;99.90;;;;;;5062040;28;37640;-81
2023/11/25 09:04:19;;;;;;;8.67;1.73;;;8.00;99.90;;;;;;5058735;28;37233;-81
2023/11/25 09:06:49;;;;;;;15.52;2.15;;;7.90;99.90;;;;;;5073749;28;35767;-82
2023/11/25 09:09:18;;;;;;;14.20;1.87;;;7.70;99.90;;;;;;5069070;28;37479;-81
2023/11/25 09:11:44;;;;;;;13.50;1.93;;;7.40;99.90;;;;;;5061243;28;36172;-80
2023/11/25 09:14:10;;;;;;;11.67;1.73;;;7.20;99.90;;;;;;5062742;28;38384;-81
2023/11/25 09:16:37;;;;;;;13.10;1.80;;;7.10;99.90;;;;;;5069565;28;39240;-80
2023/11/25 09:19:09;;;;;;;12.43;1.70;;;7.00;99.90;;;;;;5076202;28;38735;-80
2023/11/25 09:21:35;;;;;;;15.73;2.08;;;6.90;99.90;;;;;;5063080;28;37061;-80
2023/11/25 09:24:02;;;;;;;15.17;2.57;;;7.00;99.90;;;;;;5066151;28;39289;-80
2023/11/25 09:26:28;;;;;;;10.80;1.90;;;7.20;99.90;;;;;;5069985;28;37918;-80
2023/11/25 09:28:54;;;;;;;9.90;1.40;;;7.50;99.90;;;;;;5071594;28;37962;-79
2023/11/25 09:31:21;;;;;;;12.00;1.73;;;7.60;99.90;;;;;;5076554;28;36582;-79
2023/11/25 09:33:47;;;;;;;16.80;2.47;;;7.50;99.90;;;;;;5068957;28;37663;-81
2023/11/25 09:36:14;;;;;;;6.60;1.43;;;7.30;99.90;;;;;;5074567;28;38352;-81
2023/11/25 09:38:40;;;;;;;8.33;1.40;;;7.10;99.90;;;;;;5077343;28;38509;-81
2023/11/25 09:41:06;;;;;;;7.47;1.00;;;6.90;99.90;;;;;;5065761;28;36434;-80
2023/11/25 09:43:36;;;;;;;9.80;1.20;;;6.90;99.90;;;;;;5059705;28;40241;-80
2023/11/25 09:46:02;;;;;;;6.00;1.13;;;7.00;99.90;;;;;;5063581;28;38394;-80
2023/11/25 09:48:28;;;;;;;9.77;1.67;;;7.00;99.90;;;;;;5063568;28;37541;-80
2023/11/25 09:50:55;;;;;;;11.27;1.90;;;7.10;99.90;;;;;;5059453;28;37509;-79
2023/11/25 09:53:27;;;;;;;10.37;1.50;;;7.00;99.90;;;;;;5061842;28;36547;-80
2023/11/25 09:56:06;;;;;;;13.82;1.90;;;7.10;99.90;;;;;;5070810;28;38835;-80
2023/11/25 09:58:34;;;;;;;14.07;1.70;;;7.20;99.90;;;;;;5066778;28;48561;-80
2023/11/25 10:01:01;;;;;;;18.63;2.13;;;7.40;99.90;;;;;;5066661;28;36391;-79
2023/11/25 10:03:33;;;;;;;17.67;2.10;;;7.50;99.90;;;;;;5065157;28;47591;-79
2023/11/25 10:06:00;;;;;;;17.60;2.40;;;7.70;99.90;;;;;;5072472;28;38966;-80
2023/11/25 10:08:27;;;;;;;16.63;3.13;;;7.80;99.90;;;;;;5069047;28;47881;-80
2023/11/25 10:11:14;;;;;;;11.90;2.10;;;7.90;99.90;;;;;;5065556;28;37339;-80
2023/11/25 10:13:42;;;;;;;20.07;2.17;;;8.20;99.90;;;;;;5069946;28;48642;-81
2023/11/25 10:16:10;;;;;;;13.07;2.23;;;8.50;99.90;;;;;;5075529;28;38380;-80
2023/11/25 10:18:37;;;;;;;13.97;2.17;;;8.70;99.90;;;;;;5067077;28;37302;-79
2023/11/25 10:21:07;;;;;;;24.47;3.23;;;8.60;99.90;;;;;;5065914;28;36157;-80
2023/11/25 10:23:35;;;;;;;22.07;2.77;;;8.40;99.90;;;;;;5074456;28;37817;-79
2023/11/25 10:26:03;;;;;;;24.03;3.73;;;8.10;99.90;;;;;;5077024;28;38363;-79
2023/11/25 10:28:36;;;;;;;16.37;2.90;;;8.00;99.90;;;;;;5076257;28;47103;-79
2023/11/25 10:31:05;;;;;;;15.25;3.00;;;8.10;99.90;;;;;;5083859;28;37864;-80
2023/11/25 10:33:33;;;;;;;16.93;2.60;;;8.10;99.90;;;;;;5084184;28;39896;-80
2023/11/25 10:36:00;;;;;;;18.93;2.70;;;8.30;99.90;;;;;;5091000;28;39878;-81
2023/11/25 10:38:31;;;;;;;14.23;2.30;;;8.40;99.90;;;;;;5073179;28;48914;-80
2023/11/25 10:41:01;;;;;;;16.43;4.00;;;8.50;99.90;;;;;;5068089;28;37103;-80
2023/11/25 10:43:29;;;;;;;20.07;2.93;;;8.50;99.90;;;;;;5065065;28;40163;-80
2023/11/25 10:46:06;;;;;;;13.40;2.77;;;8.50;99.90;;;;;;5067780;28;37645;-80
2023/11/25 10:48:34;;;;;;;18.40;3.37;;;8.40;99.90;;;;;;5061671;28;47018;-80
2023/11/25 10:51:01;;;;;;;16.10;2.73;;;8.50;99.90;;;;;;5067482;28;37152;-80
2023/11/25 10:53:29;;;;;;;20.43;2.40;;;8.50;92.30;;;;;;5065093;28;47139;-80
2023/11/25 10:55:56;;;;;;;8.83;2.27;;;8.60;88.10;;;;;;5062074;28;38332;-80
2023/11/25 10:58:25;;;;;;;17.63;2.97;;;8.70;64.50;;;;;;5060710;28;36388;-79
2023/11/25 11:00:53;;;;;;;12.53;2.03;;;8.70;44.50;;;;;;5053687;28;37441;-80
2023/11/25 11:03:36;;;;;;;15.60;2.17;;;8.90;46.80;;;;;;5059389;28;37658;-79
2023/11/25 11:06:06;;;;;;;12.87;1.80;;;9.00;49.30;;;;;;5064922;28;39487;-80
2023/11/25 11:08:36;;;;;;;9.53;1.67;;;9.10;52.80;;;;;;5062384;28;38499;-80
2023/11/25 11:11:13;;;;;;;11.60;1.90;;;9.20;52.80;;;;;;5059093;28;37139;-80
2023/11/25 11:13:46;;;;;;;21.50;2.83;;;9.30;53.00;;;;;;5074927;28;37500;-79
2023/11/25 11:16:47;;;;;;;;;;;9.40;61.00;;;;;;5060530;28;39518;-80
2023/11/25 11:19:16;;;;;;;17.13;3.70;;;9.40;50.20;;;;;;4999991;28;37093;-80
2023/11/25 11:21:47;;;;;;;12.60;2.77;;;9.40;55.70;;;;;;5050942;28;35528;-79
2023/11/25 11:24:22;;;;;;;20.00;3.83;;;9.40;67.70;;;;;;5058977;28;37973;-80
2023/11/25 11:26:48;;;;;;;16.67;3.30;;;9.40;69.10;;;;;;5064393;28;37262;-80
2023/11/25 11:29:35;;;;;;;19.07;2.73;;;9.50;60.50;;;;;;5059646;28;38109;-80
2023/11/25 11:32:17;;;;;;;23.73;4.63;;;9.60;56.80;;;;;;5045236;28;36371;-79
2023/11/25 11:34:44;;;;;;;16.38;3.05;;;9.70;54.80;;;;;;5059376;28;47701;-79
2023/11/25 11:37:10;;;;;;;20.57;3.50;;;9.80;52.30;;;;;;5058417;28;37811;-79
2023/11/25 11:39:51;;;;;;;19.20;2.63;;;9.80;52.80;;;;;;5063615;28;37962;-80
2023/11/25 11:42:26;;;;;;;20.97;3.43;;;9.90;45.30;;;;;;5058091;28;36176;-79
2023/11/25 11:45:14;;;;;;;16.03;2.23;;;9.90;48.00;;;;;;5062375;28;42118;-79
2023/11/25 11:47:48;;;;;;;13.63;2.33;;;9.80;45.50;;;;;;5063189;28;47610;-79
2023/11/25 11:50:19;;;;;;;15.20;2.83;;;9.70;38.00;;;;;;5068138;28;37343;-79
2023/11/25 11:53:12;;;;;;;13.90;2.00;;;9.70;29.90;;;;;;5069102;28;35937;-79
2023/11/25 11:55:52;;;;;;;;;;;9.70;31.00;;;;;;5070404;28;47092;-79
2023/11/25 11:58:20;;;;;;;13.57;2.47;;;9.70;36.00;;;;;;5066299;28;37687;-79
2023/11/25 12:01:08;;;;;;;9.67;1.80;;;9.60;26.40;;;;;;5073249;28;39347;-79
2023/11/25 12:03:38;;;;;;;12.60;1.60;;;9.60;17.30;;;;;;5068026;28;47331;-79
2023/11/25 12:06:05;;;;;;;11.63;1.97;;;9.70;26.10;;;;;;5071155;28;39623;-79
2023/11/25 12:08:31;;;;;;;18.67;2.30;;;9.70;23.60;;;;;;5068266;28;38911;-79
2023/11/25 12:10:58;;;;;;;14.17;1.93;;;9.80;22.80;;;;;;5069398;28;36764;-79
2023/11/25 12:13:27;;;;;;;20.63;3.10;;;9.80;13.90;;;;;;5072704;28;37248;-79
2023/11/25 12:16:03;;;;;;;17.10;2.80;;;9.80;12.70;;;;;;5066062;28;38511;-78
2023/11/25 12:18:31;;;;;;;16.17;2.87;;;9.80;17.80;;;;;;5068782;28;48903;-79
2023/11/25 12:21:02;;;;;;;16.17;2.63;;;9.80;24.70;;;;;;5075183;28;38189;-78
2023/11/25 12:23:29;;;;;;;16.83;3.03;;;9.90;31.20;;;;;;5066931;28;47248;-78
2023/11/25 12:26:02;;;;;;;16.97;3.20;;;10.00;26.40;;;;;;5068462;28;38050;-79
2023/11/25 12:28:28;;;;;;;23.50;3.53;;;10.00;25.20;;;;;;5068654;28;48118;-78
2023/11/25 12:30:54;;;;;;;20.60;3.87;;;10.00;13.80;;;;;;5070882;28;38338;-77
2023/11/25 12:33:21;;;;;;;16.53;3.60;;;10.00;15.00;;;;;;5073113;28;36923;-77
2023/11/25 12:35:48;;;;;;;20.90;2.97;;;10.00;5.50;;;;;;5069123;28;38772;-79
2023/11/25 12:38:15;;;;;;;24.67;4.67;;;10.10;13.30;;;;;;5067758;28;39630;-79
2023/11/25 12:40:43;;;;;;;25.53;3.60;;;10.30;11.80;;;;;;5069235;28;38715;-77
2023/11/25 12:43:12;;;;;;;21.70;3.20;;;10.50;10.00;;;;;;5066684;28;36114;-78
2023/11/25 12:45:42;;;;;;;21.87;3.70;;;10.60;7.60;;;;;;5065623;28;37585;-78
2023/11/25 12:48:11;;;;;;;16.90;3.93;;;10.60;1.00;;;;;;5072819;28;38344;-78
2023/11/25 12:51:06;;;;;;;23.30;3.47;;;10.60;1.00;;;;;;5073555;28;38272;-80
2023/11/25 12:53:34;;;;;;;22.57;3.77;;;10.10;70.80;;;;;;5078183;28;49186;-80
2023/11/25 12:56:01;;;;;;;23.67;3.77;;;9.30;99.90;;;;;;5078500;28;40404;-80
2023/11/25 12:58:27;;;;;;;24.40;4.27;;;8.90;99.90;;;;;;5075994;28;48882;-79